Celine — HBEF — position and weather

sailwx.info

Track history (hours):
 
Tides and Currents Weather Stations Pressure Air Temp Water Temp Dewpoint Dewpoint Depression Visibility Wind Speed Wind Dir Waves Ship Positions

Celine

Last reported at 2016-Sep-26 11:32 UTC. Time now 2016-Sep-26 12:21 UTC.
Position N 37°44' W 025°40'.

Length 129 m; draft 6.2 m.

Type: Cargo ship. MMSI: 269057000.

Date/timePositionNaut miles runAvg speedWind from/ knotsBaromVisibWave heightAir tempDewpointWater temp
2016-Sep-26 11:32N 37°44' W 025°40'0 0.0
2016-Sep-26 08:32N 37°44' W 025°40'0 0.0
2016-Sep-26 02:32N 37°44' W 025°40'0 0.0
2016-Sep-26 01:32N 37°44' W 025°40'0 0.0
2016-Sep-26 00:32N 37°44' W 025°40'0 0.0
2016-Sep-25 21:32N 37°44' W 025°40'0 0.0
2016-Sep-25 17:32N 37°44' W 025°40'0 0.0
2016-Sep-25 16:32N 37°44' W 025°40'0 0.0
2016-Sep-25 15:32N 37°44' W 025°40'0 0.0
2016-Sep-25 14:32N 37°44' W 025°40'0 0.0
2016-Sep-25 12:32N 37°44' W 025°40'0 0.0
2016-Sep-25 11:32N 37°44' W 025°40'0 0.0
2016-Sep-25 10:32N 37°44' W 025°40'0 0.0
2016-Sep-25 09:32N 37°44' W 025°40'0 0.0
2016-Sep-25 07:32N 37°44' W 025°40'0 0.0
2016-Sep-25 04:32N 37°44' W 025°40'0 0.0
2016-Sep-25 00:32N 37°44' W 025°40'0 0.0
2016-Sep-24 22:32N 37°44' W 025°40'0 0.0
2016-Sep-24 21:32N 37°44' W 025°40'0 0.0
2016-Sep-24 19:32N 37°44' W 025°40'0 0.0
2016-Sep-24 18:32N 37°44' W 025°40'0 0.0
2016-Sep-24 17:32N 37°44' W 025°40'0 0.0
2016-Sep-24 16:32N 37°44' W 025°40'0 0.0
2016-Sep-24 14:32N 37°44' W 025°40'0 0.0
2016-Sep-24 12:32N 37°44' W 025°40'0 0.0
2016-Sep-24 10:32N 37°44' W 025°40'0 0.0
2016-Sep-24 09:32N 37°44' W 025°40'0 0.0
2016-Sep-24 03:32N 37°44' W 025°40'0 0.0
2016-Sep-24 02:32N 37°44' W 025°40'0 0.0
2016-Sep-24 01:32N 37°44' W 025°40'0 0.0
2016-Sep-24 00:32N 37°44' W 025°40'0 0.0
2016-Sep-23 19:32N 37°44' W 025°40'0 0.0
2016-Sep-23 17:32N 37°44' W 025°40'0 0.0
2016-Sep-23 16:32N 37°44' W 025°40'0 0.0
2016-Sep-23 15:32N 37°44' W 025°40'0 0.0
2016-Sep-23 13:32N 37°44' W 025°40'1 0.2
2016-Sep-23 09:34N 37°44' W 025°39'7 2.2
2016-Sep-23 06:33N 37°38' W 025°36'5 2.6
2016-Sep-23 04:34N 37°40' W 025°42'3 3.4
2016-Sep-23 03:33N 37°40' W 025°46'3 3.3
2016-Sep-23 02:34N 37°40' W 025°51'3 3.4
2016-Sep-23 01:33N 37°41' W 025°55'3 3.3
2016-Sep-23 00:33N 37°41' W 025°59'3 3.0
2016-Sep-22 23:33N 37°42' W 026°03'9 3.2
2016-Sep-22 20:33N 37°44' W 026°14'29 3.6
2016-Sep-22 12:33N 37°48' W 026°51'26 3.3
2016-Sep-22 04:33N 37°53' W 027°23'3 2.8
2016-Sep-22 03:33N 37°54' W 027°26'9 2.9
2016-Sep-22 00:33N 37°56' W 027°37'3 2.8
2016-Sep-21 23:34N 37°57' W 027°40'3 2.6
2016-Sep-21 22:33N 37°58' W 027°44'8 2.8
2016-Sep-21 19:33N 38°01' W 027°54'10 3.2
2016-Sep-21 16:33N 38°03' W 028°06'21 3.0
2016-Sep-21 09:33N 38°04' W 028°32'4 3.9
2016-Sep-21 08:33N 38°03' W 028°37'11 3.8
2016-Sep-21 05:33N 38°04' W 028°51'8 3.8
2016-Sep-21 03:34N 38°06' W 029°01'4 4.2
2016-Sep-21 02:33N 38°06' W 029°06'39 4.3
2016-Sep-20 17:34N 38°11' W 029°55'13 4.1
2016-Sep-20 14:19N 38°12' W 030°12'4 3.9
2016-Sep-20 13:19N 38°12' W 030°17'12 4.1
2016-Sep-20 10:18N 38°11' W 030°33'7 3.8
2016-Sep-20 08:31N 38°11' W 030°42'4 4.3
2016-Sep-20 07:33N 38°11' W 030°47'  
Track history (hours):
 
Tides and Currents Weather Stations Pressure Air Temp Water Temp Dewpoint Dewpoint Depression Visibility Wind Speed Wind Dir Waves Ship Positions

Celine

Last reported at 2016-Sep-26 11:32 UTC. Time now 2016-Sep-26 12:21 UTC.
Position N 37°44' W 025°40'.

Length 129 m; draft 6.2 m.

Type: Cargo ship. MMSI: 269057000.

Date/timePositionNaut miles runAvg speedWind from/ knotsBaromVisibWave heightAir tempDewpointWater temp
2016-Sep-26 11:32N 37°44' W 025°40'0 0.0
2016-Sep-26 08:32N 37°44' W 025°40'0 0.0
2016-Sep-26 02:32N 37°44' W 025°40'0 0.0
2016-Sep-26 01:32N 37°44' W 025°40'0 0.0
2016-Sep-26 00:32N 37°44' W 025°40'0 0.0
2016-Sep-25 21:32N 37°44' W 025°40'0 0.0
2016-Sep-25 17:32N 37°44' W 025°40'0 0.0
2016-Sep-25 16:32N 37°44' W 025°40'0 0.0
2016-Sep-25 15:32N 37°44' W 025°40'0 0.0
2016-Sep-25 14:32N 37°44' W 025°40'0 0.0
2016-Sep-25 12:32N 37°44' W 025°40'0 0.0
2016-Sep-25 11:32N 37°44' W 025°40'0 0.0
2016-Sep-25 10:32N 37°44' W 025°40'0 0.0
2016-Sep-25 09:32N 37°44' W 025°40'0 0.0
2016-Sep-25 07:32N 37°44' W 025°40'0 0.0
2016-Sep-25 04:32N 37°44' W 025°40'0 0.0
2016-Sep-25 00:32N 37°44' W 025°40'0 0.0
2016-Sep-24 22:32N 37°44' W 025°40'0 0.0
2016-Sep-24 21:32N 37°44' W 025°40'0 0.0
2016-Sep-24 19:32N 37°44' W 025°40'0 0.0
2016-Sep-24 18:32N 37°44' W 025°40'0 0.0
2016-Sep-24 17:32N 37°44' W 025°40'0 0.0
2016-Sep-24 16:32N 37°44' W 025°40'0 0.0
2016-Sep-24 14:32N 37°44' W 025°40'0 0.0
2016-Sep-24 12:32N 37°44' W 025°40'0 0.0
2016-Sep-24 10:32N 37°44' W 025°40'0 0.0
2016-Sep-24 09:32N 37°44' W 025°40'0 0.0
2016-Sep-24 03:32N 37°44' W 025°40'0 0.0
2016-Sep-24 02:32N 37°44' W 025°40'0 0.0
2016-Sep-24 01:32N 37°44' W 025°40'0 0.0
2016-Sep-24 00:32N 37°44' W 025°40'0 0.0
2016-Sep-23 19:32N 37°44' W 025°40'0 0.0
2016-Sep-23 17:32N 37°44' W 025°40'0 0.0
2016-Sep-23 16:32N 37°44' W 025°40'0 0.0
2016-Sep-23 15:32N 37°44' W 025°40'0 0.0
2016-Sep-23 13:32N 37°44' W 025°40'1 0.2
2016-Sep-23 09:34N 37°44' W 025°39'7 2.2
2016-Sep-23 06:33N 37°38' W 025°36'5 2.6
2016-Sep-23 04:34N 37°40' W 025°42'3 3.4
2016-Sep-23 03:33N 37°40' W 025°46'3 3.3
2016-Sep-23 02:34N 37°40' W 025°51'3 3.4
2016-Sep-23 01:33N 37°41' W 025°55'3 3.3
2016-Sep-23 00:33N 37°41' W 025°59'3 3.0
2016-Sep-22 23:33N 37°42' W 026°03'9 3.2
2016-Sep-22 20:33N 37°44' W 026°14'29 3.6
2016-Sep-22 12:33N 37°48' W 026°51'26 3.3
2016-Sep-22 04:33N 37°53' W 027°23'3 2.8
2016-Sep-22 03:33N 37°54' W 027°26'9 2.9
2016-Sep-22 00:33N 37°56' W 027°37'3 2.8
2016-Sep-21 23:34N 37°57' W 027°40'3 2.6
2016-Sep-21 22:33N 37°58' W 027°44'8 2.8
2016-Sep-21 19:33N 38°01' W 027°54'10 3.2
2016-Sep-21 16:33N 38°03' W 028°06'21 3.0
2016-Sep-21 09:33N 38°04' W 028°32'4 3.9
2016-Sep-21 08:33N 38°03' W 028°37'11 3.8
2016-Sep-21 05:33N 38°04' W 028°51'8 3.8
2016-Sep-21 03:34N 38°06' W 029°01'4 4.2
2016-Sep-21 02:33N 38°06' W 029°06'39 4.3
2016-Sep-20 17:34N 38°11' W 029°55'13 4.1
2016-Sep-20 14:19N 38°12' W 030°12'4 3.9
2016-Sep-20 13:19N 38°12' W 030°17'12 4.1
2016-Sep-20 10:18N 38°11' W 030°33'7 3.8
2016-Sep-20 08:31N 38°11' W 030°42'4 4.3
2016-Sep-20 07:33N 38°11' W 030°47'  

Dump ship's entire track history